createdAt,value
2022-10-31T00:01:46.288Z,7.10
2022-10-31T00:04:15.566Z,7.07
2022-10-31T00:06:44.887Z,7.06
2022-10-31T00:09:15.857Z,7.03
2022-10-31T00:11:45.179Z,7.03
2022-10-31T00:14:14.408Z,7.01
2022-10-31T00:16:43.911Z,7.01
2022-10-31T00:19:13.196Z,7.00
2022-10-31T00:21:42.611Z,6.99
2022-10-31T00:24:12.570Z,6.97
2022-10-31T00:26:43.477Z,6.96
2022-10-31T00:29:13.852Z,6.95
2022-10-31T00:31:43.229Z,6.95
2022-10-31T00:34:12.395Z,6.93
2022-10-31T00:36:42.284Z,6.93
2022-10-31T00:39:16.011Z,6.93
2022-10-31T00:41:46.796Z,6.90
2022-10-31T00:44:16.434Z,6.90
2022-10-31T00:46:45.788Z,6.88
2022-10-31T00:49:14.993Z,6.87
2022-10-31T00:51:44.595Z,6.87
2022-10-31T00:54:13.840Z,6.86
2022-10-31T00:56:43.313Z,6.85
2022-10-31T00:59:13.847Z,6.84
2022-10-31T01:01:44.619Z,6.83
2022-10-31T01:04:14.030Z,6.82
2022-10-31T01:06:43.375Z,6.80
2022-10-31T01:09:12.627Z,6.79
2022-10-31T01:11:42.001Z,6.77
2022-10-31T01:14:13.739Z,6.76
2022-10-31T01:16:43.254Z,6.75
2022-10-31T01:19:12.400Z,6.75
2022-10-31T01:21:41.788Z,6.76
2022-10-31T01:24:11.423Z,6.77
2022-10-31T01:26:41.590Z,6.78
2022-10-31T01:29:13.282Z,6.81
2022-10-31T01:31:43.683Z,6.83
2022-10-31T01:34:16.824Z,6.86
2022-10-31T01:36:52.375Z,6.91
2022-10-31T01:39:22.380Z,6.93
2022-10-31T01:41:54.129Z,6.98
2022-10-31T01:45:01.089Z,7.01
2022-10-31T01:47:39.625Z,7.07
2022-10-31T01:50:22.817Z,7.09
2022-10-31T01:52:54.674Z,7.15
2022-10-31T01:55:30.442Z,7.20
2022-10-31T01:58:06.935Z,7.26
2022-10-31T02:00:37.943Z,7.29
2022-10-31T02:03:07.635Z,7.35
2022-10-31T02:05:37.932Z,7.40
2022-10-31T02:08:12.479Z,7.45
2022-10-31T02:10:44.866Z,7.51
2022-10-31T02:13:15.215Z,7.56
2022-10-31T02:15:53.715Z,7.61
2022-10-31T02:18:24.387Z,7.65
2022-10-31T02:21:04.327Z,7.70
2022-10-31T02:24:00.713Z,7.74
2022-10-31T02:27:04.936Z,7.80
2022-10-31T02:30:04.194Z,7.86
2022-10-31T02:32:52.560Z,7.92
2022-10-31T02:35:35.791Z,7.96
2022-10-31T02:38:15.395Z,8.00
2022-10-31T02:40:53.240Z,8.04
2022-10-31T02:43:37.366Z,8.08
2022-10-31T02:46:13.092Z,8.11
2022-10-31T02:48:46.762Z,8.15
2022-10-31T02:51:17.583Z,8.19
2022-10-31T02:53:46.883Z,8.23
2022-10-31T02:56:18.116Z,8.26
2022-10-31T02:58:51.080Z,8.30
2022-10-31T03:01:51.444Z,8.33
2022-10-31T03:04:48.540Z,8.37
2022-10-31T03:07:29.834Z,8.41
2022-10-31T03:10:11.702Z,8.43
2022-10-31T03:12:50.179Z,8.45
2022-10-31T03:15:25.819Z,8.50
2022-10-31T03:18:01.333Z,8.52
2022-10-31T03:20:38.653Z,8.55
2022-10-31T03:23:13.462Z,8.57
2022-10-31T03:25:44.270Z,8.60
2022-10-31T03:31:21.715Z,8.66
2022-10-31T03:33:53.323Z,8.68
2022-10-31T03:36:25.404Z,8.71
2022-10-31T03:38:56.327Z,8.73
2022-10-31T03:41:31.195Z,8.77
2022-10-31T03:44:05.370Z,8.78
2022-10-31T03:46:36.485Z,8.81
2022-10-31T03:49:06.663Z,8.82
2022-10-31T03:51:46.044Z,8.84
2022-10-31T03:54:23.177Z,8.86
2022-10-31T03:56:56.255Z,8.88
2022-10-31T03:59:31.361Z,8.89
2022-10-31T04:02:06.419Z,8.91
2022-10-31T04:04:37.306Z,8.91
2022-10-31T04:07:11.097Z,8.92
2022-10-31T04:09:45.113Z,8.94
2022-10-31T04:12:18.029Z,8.94
2022-10-31T04:15:13.579Z,8.96
2022-10-31T04:17:47.492Z,8.97
2022-10-31T04:20:19.454Z,8.98
2022-10-31T04:22:50.196Z,8.98
2022-10-31T04:25:19.652Z,8.98
2022-10-31T04:27:48.809Z,8.99
2022-10-31T04:30:18.351Z,8.98
2022-10-31T04:32:47.701Z,8.99
2022-10-31T04:35:17.222Z,8.97
2022-10-31T04:37:46.824Z,8.97
2022-10-31T04:40:18.412Z,8.98
2022-10-31T04:43:06.214Z,8.97
2022-10-31T04:45:35.652Z,8.97
2022-10-31T04:48:05.293Z,8.97
2022-10-31T04:50:37.391Z,8.97
2022-10-31T04:53:06.654Z,8.96
2022-10-31T04:55:44.443Z,8.96
2022-10-31T04:58:20.123Z,8.97
2022-10-31T05:00:49.606Z,8.96
2022-10-31T05:03:18.790Z,8.96
2022-10-31T05:05:50.065Z,8.97
2022-10-31T05:08:19.398Z,8.98
2022-10-31T05:10:53.087Z,8.98
2022-10-31T05:16:17.064Z,8.98
2022-10-31T05:19:05.252Z,9.00
2022-10-31T05:21:54.671Z,9.00
2022-10-31T05:24:23.929Z,9.00
2022-10-31T05:26:54.699Z,9.01
2022-10-31T05:29:24.064Z,9.01
2022-10-31T05:31:54.391Z,9.02
2022-10-31T05:34:43.796Z,9.04
2022-10-31T05:37:36.385Z,9.03
2022-10-31T05:40:08.547Z,9.04
2022-10-31T05:42:41.680Z,9.05
2022-10-31T05:45:12.663Z,9.07
2022-10-31T05:48:04.063Z,9.08
2022-10-31T05:50:53.422Z,9.09
2022-10-31T05:53:22.897Z,9.10
2022-10-31T05:55:52.210Z,9.10
2022-10-31T05:58:25.422Z,9.12
2022-10-31T06:01:06.808Z,9.13
2022-10-31T06:03:36.481Z,9.15
2022-10-31T06:06:08.527Z,9.16
2022-10-31T06:08:40.914Z,9.16
2022-10-31T06:11:16.576Z,9.18
2022-10-31T06:14:06.803Z,9.18
2022-10-31T06:16:49.866Z,9.20
2022-10-31T06:19:39.706Z,9.21
2022-10-31T06:22:09.146Z,9.22
2022-10-31T06:24:38.482Z,9.24
2022-10-31T06:27:20.409Z,9.25
2022-10-31T06:29:53.688Z,9.27
2022-10-31T06:32:32.384Z,9.29
2022-10-31T06:35:01.724Z,9.32
2022-10-31T06:37:31.381Z,9.33
2022-10-31T06:40:08.274Z,9.35
2022-10-31T06:43:01.973Z,9.38
2022-10-31T06:45:34.511Z,9.41
2022-10-31T06:48:23.346Z,9.43
2022-10-31T06:51:31.716Z,9.50
2022-10-31T06:54:02.446Z,9.52
2022-10-31T06:56:31.961Z,9.55
2022-10-31T06:59:02.076Z,9.58
2022-10-31T07:02:00.692Z,9.62
2022-10-31T07:04:30.087Z,9.64
2022-10-31T07:06:59.719Z,9.66
2022-10-31T07:09:29.106Z,9.71
2022-10-31T07:12:00.932Z,9.72
2022-10-31T07:14:32.065Z,9.78
2022-10-31T07:17:02.715Z,9.81
2022-10-31T07:19:38.343Z,9.84
2022-10-31T07:22:07.691Z,9.86
2022-10-31T07:24:37.663Z,9.89
2022-10-31T07:27:16.674Z,9.94
2022-10-31T07:29:47.949Z,9.98
2022-10-31T07:32:20.315Z,10.02
2022-10-31T07:34:55.308Z,10.08
2022-10-31T07:37:30.487Z,10.13
2022-10-31T07:40:01.572Z,10.18
2022-10-31T07:42:37.997Z,10.23
2022-10-31T07:45:10.365Z,10.28
2022-10-31T07:48:04.383Z,10.33
2022-10-31T07:50:52.562Z,10.39
2022-10-31T07:53:22.113Z,10.46
2022-10-31T07:55:54.982Z,10.50
2022-10-31T07:58:30.419Z,10.55
2022-10-31T08:01:01.985Z,10.61
2022-10-31T08:03:42.830Z,10.66
2022-10-31T08:06:38.245Z,10.72
2022-10-31T08:09:29.651Z,10.78
2022-10-31T08:12:02.535Z,10.84
2022-10-31T08:14:33.989Z,10.89
2022-10-31T08:17:03.809Z,10.95
2022-10-31T08:19:44.616Z,11.01
2022-10-31T08:22:16.771Z,11.07
2022-10-31T08:25:11.985Z,11.15
2022-10-31T08:27:43.124Z,11.19
2022-10-31T08:30:20.266Z,11.26
2022-10-31T08:33:14.350Z,11.32
2022-10-31T08:36:20.409Z,11.39
2022-10-31T08:38:54.600Z,11.46
2022-10-31T08:41:27.312Z,11.50
2022-10-31T08:43:56.551Z,11.57
2022-10-31T08:46:25.756Z,11.60
2022-10-31T08:48:55.824Z,11.67
2022-10-31T08:51:27.614Z,11.72
2022-10-31T08:53:59.113Z,11.78
2022-10-31T08:56:28.538Z,11.84
2022-10-31T08:58:57.871Z,11.90
2022-10-31T09:01:37.840Z,11.94
2022-10-31T09:04:08.673Z,12.00
2022-10-31T09:07:08.025Z,12.04
2022-10-31T09:09:35.339Z,12.11
2022-10-31T09:12:05.123Z,12.15
2022-10-31T09:14:46.086Z,12.19
2022-10-31T09:17:25.303Z,12.24
2022-10-31T09:20:14.795Z,12.30
2022-10-31T09:22:47.899Z,12.37
2022-10-31T09:25:17.184Z,12.43
2022-10-31T09:27:52.614Z,12.49
2022-10-31T09:30:22.079Z,12.54
2022-10-31T09:32:58.305Z,12.62
2022-10-31T09:35:29.529Z,12.68
2022-10-31T09:38:04.313Z,12.73
2022-10-31T09:40:37.299Z,12.79
2022-10-31T09:43:16.763Z,12.85
2022-10-31T09:45:58.227Z,12.91
2022-10-31T09:49:03.571Z,12.97
2022-10-31T09:51:55.965Z,13.04
2022-10-31T09:54:37.883Z,13.10
2022-10-31T09:57:12.992Z,13.15
2022-10-31T09:59:46.532Z,13.21
2022-10-31T10:02:24.163Z,13.25
2022-10-31T10:04:59.415Z,13.30
2022-10-31T10:07:37.723Z,13.36
2022-10-31T10:10:38.497Z,13.39
2022-10-31T10:13:54.883Z,13.43
2022-10-31T10:16:41.230Z,13.46
2022-10-31T10:19:23.037Z,13.49
2022-10-31T10:22:00.886Z,13.53
2022-10-31T10:24:55.546Z,13.55
2022-10-31T10:27:33.311Z,13.57
2022-10-31T10:30:07.886Z,13.60
2022-10-31T10:32:49.297Z,13.62
2022-10-31T10:35:27.019Z,13.65
2022-10-31T10:38:11.143Z,13.68
2022-10-31T10:40:41.763Z,13.71
2022-10-31T10:43:26.368Z,13.74
2022-10-31T10:46:37.043Z,13.77
2022-10-31T10:49:18.588Z,13.81
2022-10-31T10:54:49.036Z,13.90
2022-10-31T10:57:44.025Z,13.93
2022-10-31T11:00:23.967Z,13.96
2022-10-31T11:02:54.202Z,13.99
2022-10-31T11:05:30.397Z,14.02
2022-10-31T11:07:59.640Z,14.04
2022-10-31T11:10:28.787Z,14.05
2022-10-31T11:13:06.801Z,14.07
2022-10-31T11:15:51.190Z,14.09
2022-10-31T11:21:01.608Z,14.14
2022-10-31T11:23:32.003Z,14.15
2022-10-31T11:26:03.380Z,14.16
2022-10-31T11:28:36.050Z,14.16
2022-10-31T11:31:14.575Z,14.18
2022-10-31T11:33:50.424Z,14.19
2022-10-31T11:36:25.422Z,14.21
2022-10-31T11:38:56.098Z,14.22
2022-10-31T11:41:30.178Z,14.22
2022-10-31T11:44:02.654Z,14.23
2022-10-31T11:46:37.996Z,14.23
2022-10-31T11:49:23.767Z,14.24
2022-10-31T11:51:56.767Z,14.23
2022-10-31T11:54:29.767Z,14.23
2022-10-31T11:56:59.235Z,14.22
2022-10-31T11:59:31.416Z,14.22
2022-10-31T12:02:03.631Z,14.22
2022-10-31T12:04:44.289Z,14.22
2022-10-31T12:07:13.841Z,14.21
2022-10-31T12:09:43.353Z,14.20
2022-10-31T12:12:44.231Z,14.18
2022-10-31T12:15:32.525Z,14.18
2022-10-31T12:18:49.788Z,14.15
2022-10-31T12:21:31.838Z,14.10
2022-10-31T12:24:15.666Z,14.11
2022-10-31T12:26:59.596Z,14.07
2022-10-31T12:29:44.358Z,14.06
2022-10-31T12:32:30.169Z,14.05
2022-10-31T12:35:25.652Z,14.03
2022-10-31T12:38:19.180Z,14.00
2022-10-31T12:41:10.971Z,13.99
2022-10-31T12:43:49.163Z,13.98
2022-10-31T12:46:27.634Z,13.97
2022-10-31T12:49:19.372Z,13.96
2022-10-31T12:51:59.267Z,13.96
2022-10-31T12:54:48.134Z,13.94
2022-10-31T12:57:25.355Z,13.92
2022-10-31T13:00:00.336Z,13.91
2022-10-31T13:02:34.340Z,13.91
2022-10-31T13:05:09.943Z,13.89
2022-10-31T13:07:45.411Z,13.89
2022-10-31T13:10:21.815Z,13.89
2022-10-31T13:12:55.352Z,13.89
2022-10-31T13:15:28.114Z,13.88
2022-10-31T13:18:00.825Z,13.88
2022-10-31T13:20:34.433Z,13.87
2022-10-31T13:23:23.831Z,13.88
2022-10-31T13:26:09.109Z,13.88
2022-10-31T13:28:43.167Z,13.88
2022-10-31T13:31:12.660Z,13.87
2022-10-31T13:33:49.471Z,13.88
2022-10-31T13:36:28.449Z,13.89
2022-10-31T13:39:04.588Z,13.88
2022-10-31T13:41:42.912Z,13.89
2022-10-31T13:44:24.994Z,13.89
2022-10-31T13:46:55.300Z,13.90
2022-10-31T13:49:39.588Z,13.90
2022-10-31T13:52:17.005Z,13.89
2022-10-31T13:54:50.147Z,13.89
2022-10-31T13:57:22.190Z,13.89
2022-10-31T13:59:55.122Z,13.89
2022-10-31T14:02:29.990Z,13.87
2022-10-31T14:05:02.232Z,13.87
2022-10-31T14:07:33.637Z,13.87
2022-10-31T14:10:07.072Z,13.86
2022-10-31T14:12:41.153Z,13.87
2022-10-31T14:15:19.092Z,13.85
2022-10-31T14:17:50.952Z,13.82
2022-10-31T14:20:41.287Z,13.81
2022-10-31T14:23:50.730Z,13.79
2022-10-31T14:26:36.135Z,13.77
2022-10-31T14:29:25.918Z,13.76
2022-10-31T14:31:58.253Z,13.74
2022-10-31T14:34:32.105Z,13.74
2022-10-31T14:37:35.004Z,13.73
2022-10-31T14:40:19.606Z,13.72
2022-10-31T14:43:07.144Z,13.71
2022-10-31T14:45:48.764Z,13.69
2022-10-31T14:48:44.132Z,13.68
2022-10-31T14:51:17.209Z,13.65
2022-10-31T14:53:50.527Z,13.65
2022-10-31T14:56:25.897Z,13.64
2022-10-31T14:59:00.040Z,13.61
2022-10-31T15:01:32.262Z,13.60
2022-10-31T15:04:24.299Z,13.59
2022-10-31T15:07:00.233Z,13.59
2022-10-31T15:09:32.072Z,13.57
2022-10-31T15:12:02.060Z,13.56
2022-10-31T15:14:33.815Z,13.54
2022-10-31T15:17:05.679Z,13.54
2022-10-31T15:19:37.655Z,13.53
2022-10-31T15:22:07.909Z,13.52
2022-10-31T15:24:39.873Z,13.52
2022-10-31T15:27:15.362Z,13.52
2022-10-31T15:29:53.441Z,13.50
2022-10-31T15:32:25.142Z,13.51
2022-10-31T15:34:56.656Z,13.50
2022-10-31T15:37:27.877Z,13.49
2022-10-31T15:39:57.542Z,13.49
2022-10-31T15:42:29.451Z,13.48
2022-10-31T15:45:06.685Z,13.48
2022-10-31T15:47:38.048Z,13.47
2022-10-31T15:50:21.064Z,13.46
2022-10-31T15:52:52.178Z,13.45
2022-10-31T15:55:23.837Z,13.45
2022-10-31T15:57:56.211Z,13.44
2022-10-31T16:00:30.338Z,13.44
2022-10-31T16:03:27.405Z,13.44
2022-10-31T16:05:58.295Z,13.43
2022-10-31T16:08:38.195Z,13.42
2022-10-31T16:11:24.580Z,13.42
2022-10-31T16:14:00.572Z,13.41
2022-10-31T16:16:35.565Z,13.41
2022-10-31T16:19:08.413Z,13.40
2022-10-31T16:21:40.546Z,13.41
2022-10-31T16:24:20.913Z,13.40
2022-10-31T16:26:52.138Z,13.40
2022-10-31T16:29:30.123Z,13.40
2022-10-31T16:32:01.009Z,13.39
2022-10-31T16:34:30.324Z,13.38
2022-10-31T16:36:59.402Z,13.36
2022-10-31T16:39:28.664Z,13.37
2022-10-31T16:41:59.005Z,13.37
2022-10-31T16:44:29.339Z,13.36
2022-10-31T16:47:15.259Z,13.36
2022-10-31T16:49:46.056Z,13.35
2022-10-31T16:52:15.643Z,13.35
2022-10-31T16:54:44.852Z,13.35
2022-10-31T16:57:19.536Z,13.35
2022-10-31T16:59:50.814Z,13.35
2022-10-31T17:02:22.258Z,13.34
2022-10-31T17:04:55.643Z,13.33
2022-10-31T17:07:26.509Z,13.33
2022-10-31T17:09:55.683Z,13.32
2022-10-31T17:12:28.357Z,13.32
2022-10-31T17:14:57.808Z,13.31
2022-10-31T17:17:28.909Z,13.30
2022-10-31T17:19:58.297Z,13.30
2022-10-31T17:22:27.450Z,13.30
2022-10-31T17:24:56.838Z,13.28
2022-10-31T17:27:25.908Z,13.28
2022-10-31T17:29:55.481Z,13.26
2022-10-31T17:32:24.816Z,13.25
2022-10-31T17:34:55.599Z,13.25
2022-10-31T17:37:25.291Z,13.24
2022-10-31T17:39:54.231Z,13.24
2022-10-31T17:42:23.555Z,13.23
2022-10-31T17:44:52.858Z,13.23
2022-10-31T17:47:22.211Z,13.23
2022-10-31T17:49:53.233Z,13.24
2022-10-31T17:52:24.581Z,13.23
2022-10-31T17:54:53.855Z,13.23
2022-10-31T17:57:22.950Z,13.23
2022-10-31T17:59:52.303Z,13.21
2022-10-31T18:02:21.509Z,13.20
2022-10-31T18:04:50.892Z,13.20
2022-10-31T18:07:20.338Z,13.19
2022-10-31T18:09:50.767Z,13.19
2022-10-31T18:12:20.278Z,13.18
2022-10-31T18:14:49.403Z,13.18
2022-10-31T18:17:18.765Z,13.18
2022-10-31T18:19:48.205Z,13.19
2022-10-31T18:22:17.640Z,13.18
2022-10-31T18:24:46.778Z,13.18
2022-10-31T18:27:17.685Z,13.17
2022-10-31T18:29:46.930Z,13.16
2022-10-31T18:32:16.316Z,13.16
2022-10-31T18:34:45.579Z,13.15
2022-10-31T18:37:14.948Z,13.14
2022-10-31T18:39:44.190Z,13.13
2022-10-31T18:42:13.371Z,13.13
2022-10-31T18:44:45.463Z,13.12
2022-10-31T18:47:14.869Z,13.11
2022-10-31T18:49:44.199Z,13.12
2022-10-31T18:52:13.538Z,13.10
2022-10-31T18:54:42.719Z,13.10
2022-10-31T18:57:12.067Z,13.09
2022-10-31T18:59:41.226Z,13.09
2022-10-31T19:02:15.266Z,13.08
2022-10-31T19:04:44.663Z,13.07
2022-10-31T19:07:13.986Z,13.07
2022-10-31T19:09:43.745Z,13.07
2022-10-31T19:12:13.113Z,13.07
2022-10-31T19:14:42.675Z,13.06
2022-10-31T19:17:13.488Z,13.06
2022-10-31T19:19:43.458Z,13.08
2022-10-31T19:22:12.864Z,13.07
2022-10-31T19:24:42.048Z,13.06
2022-10-31T19:27:11.896Z,13.06
2022-10-31T19:29:42.384Z,13.06
2022-10-31T19:32:13.263Z,13.06
2022-10-31T19:34:42.744Z,13.06
2022-10-31T19:37:12.145Z,13.06
2022-10-31T19:39:44.166Z,13.05
2022-10-31T19:42:15.099Z,13.05
2022-10-31T19:44:44.709Z,13.04
2022-10-31T19:47:15.493Z,13.03
2022-10-31T19:49:44.790Z,13.04
2022-10-31T19:52:14.293Z,13.02
2022-10-31T19:54:43.743Z,13.04
2022-10-31T19:57:13.574Z,13.05
2022-10-31T19:59:43.062Z,13.02
2022-10-31T20:02:19.892Z,13.03
2022-10-31T20:04:49.965Z,13.03
2022-10-31T20:07:20.296Z,13.03
2022-10-31T20:09:49.198Z,13.01
2022-10-31T20:12:18.623Z,13.02
2022-10-31T20:14:47.724Z,13.01
2022-10-31T20:17:18.810Z,13.02
2022-10-31T20:19:48.148Z,13.01
2022-10-31T20:22:17.322Z,13.01
2022-10-31T20:24:46.763Z,13.00
2022-10-31T20:27:15.908Z,13.00
2022-10-31T20:29:45.208Z,12.99
2022-10-31T20:32:14.519Z,12.99
2022-10-31T20:34:45.449Z,12.98
2022-10-31T20:37:15.191Z,12.99
2022-10-31T20:39:44.068Z,12.99
2022-10-31T20:42:13.516Z,12.97
2022-10-31T20:44:42.643Z,12.98
2022-10-31T20:47:11.873Z,12.97
2022-10-31T20:49:41.019Z,12.97
2022-10-31T20:52:12.113Z,12.97
2022-10-31T20:54:41.711Z,12.96
2022-10-31T20:57:11.198Z,12.97
2022-10-31T20:59:40.221Z,12.96
2022-10-31T21:02:10.491Z,12.96
2022-10-31T21:04:39.857Z,12.96
2022-10-31T21:07:09.199Z,12.96
2022-10-31T21:09:39.867Z,12.95
2022-10-31T21:12:09.336Z,12.94
2022-10-31T21:14:38.988Z,12.95
2022-10-31T21:17:08.757Z,12.96
2022-10-31T21:19:38.083Z,12.96
2022-10-31T21:22:07.169Z,12.95
2022-10-31T21:24:42.229Z,12.94
2022-10-31T21:27:12.547Z,12.94
2022-10-31T21:29:42.219Z,12.95
2022-10-31T21:32:11.591Z,12.93
2022-10-31T21:34:40.850Z,12.94
2022-10-31T21:37:10.444Z,12.92
2022-10-31T21:39:40.984Z,12.93
2022-10-31T21:42:10.583Z,12.94
2022-10-31T21:44:39.761Z,12.94
2022-10-31T21:47:09.113Z,12.94
2022-10-31T21:49:38.361Z,12.92
2022-10-31T21:52:07.713Z,12.92
2022-10-31T21:54:37.387Z,12.92
2022-10-31T21:57:08.467Z,12.92
2022-10-31T21:59:37.899Z,12.91
2022-10-31T22:02:07.479Z,12.90
2022-10-31T22:04:36.668Z,12.89
2022-10-31T22:07:05.738Z,12.89
2022-10-31T22:09:34.951Z,12.87
2022-10-31T22:12:06.732Z,12.88
2022-10-31T22:14:37.558Z,12.87
2022-10-31T22:17:07.199Z,12.87
2022-10-31T22:19:36.566Z,12.86
2022-10-31T22:22:05.622Z,12.86
2022-10-31T22:24:34.909Z,12.84
2022-10-31T22:27:04.536Z,12.84
2022-10-31T22:29:37.591Z,12.84
2022-10-31T22:32:07.497Z,12.84
2022-10-31T22:34:36.771Z,12.84
2022-10-31T22:37:06.103Z,12.83
2022-10-31T22:39:35.213Z,12.83
2022-10-31T22:42:04.650Z,12.81
2022-10-31T22:44:33.762Z,12.82
2022-10-31T22:47:04.748Z,12.81
2022-10-31T22:49:34.087Z,12.82
2022-10-31T22:52:03.671Z,12.81
2022-10-31T22:54:32.881Z,12.81
2022-10-31T22:57:02.226Z,12.81
2022-10-31T22:59:31.438Z,12.80
2022-10-31T23:02:00.953Z,12.80
2022-10-31T23:04:31.343Z,12.78
2022-10-31T23:07:00.754Z,12.78
2022-10-31T23:09:30.158Z,12.77
2022-10-31T23:12:19.589Z,12.77
2022-10-31T23:14:47.781Z,12.76
2022-10-31T23:17:18.739Z,12.77
2022-10-31T23:19:49.435Z,12.76
2022-10-31T23:22:18.845Z,12.75
2022-10-31T23:24:48.857Z,12.75
2022-10-31T23:27:19.510Z,12.75
2022-10-31T23:29:50.839Z,12.73
2022-10-31T23:32:22.998Z,12.73
2022-10-31T23:34:55.576Z,12.71
2022-10-31T23:37:27.042Z,12.71
2022-10-31T23:39:56.362Z,12.70
2022-10-31T23:42:26.942Z,12.70
2022-10-31T23:44:56.335Z,12.69
2022-10-31T23:47:26.144Z,12.70
2022-10-31T23:49:56.768Z,12.68
2022-10-31T23:52:26.307Z,12.69
2022-10-31T23:54:55.534Z,12.67
2022-10-31T23:57:24.717Z,12.67
2022-10-31T23:59:53.845Z,12.67
